sensor_id;sensor_type;location;lat;lon;timestamp;pressure;altitude;pressure_sealevel;temperature
69704;BMP280;56967;43.538;-5.646;2022-09-21T00:00:35;102080.56;;;24.95
69704;BMP280;56967;43.538;-5.646;2022-09-21T00:03:01;102081.97;;;24.49
69704;BMP280;56967;43.538;-5.646;2022-09-21T00:05:27;102068.00;;;24.42
69704;BMP280;56967;43.538;-5.646;2022-09-21T00:07:53;102073.81;;;24.64
69704;BMP280;56967;43.538;-5.646;2022-09-21T00:10:19;102073.53;;;24.66
69704;BMP280;56967;43.538;-5.646;2022-09-21T00:12:46;102075.81;;;24.44
69704;BMP280;56967;43.538;-5.646;2022-09-21T00:15:14;102069.34;;;24.88
69704;BMP280;56967;43.538;-5.646;2022-09-21T00:17:42;102072.94;;;24.74
69704;BMP280;56967;43.538;-5.646;2022-09-21T00:20:07;102072.16;;;24.68
69704;BMP280;56967;43.538;-5.646;2022-09-21T00:22:33;102067.72;;;24.49
69704;BMP280;56967;43.538;-5.646;2022-09-21T00:24:59;102066.50;;;24.70
69704;BMP280;56967;43.538;-5.646;2022-09-21T00:27:29;102066.56;;;24.55
69704;BMP280;56967;43.538;-5.646;2022-09-21T00:29:59;102060.94;;;24.56
69704;BMP280;56967;43.538;-5.646;2022-09-21T00:32:26;102065.94;;;24.73
69704;BMP280;56967;43.538;-5.646;2022-09-21T00:34:52;102065.03;;;24.82
69704;BMP280;56967;43.538;-5.646;2022-09-21T00:37:19;102058.00;;;24.91
69704;BMP280;56967;43.538;-5.646;2022-09-21T00:39:45;102060.41;;;24.93
69704;BMP280;56967;43.538;-5.646;2022-09-21T00:44:43;102048.81;;;24.97
69704;BMP280;56967;43.538;-5.646;2022-09-21T00:47:12;102060.38;;;24.59
69704;BMP280;56967;43.538;-5.646;2022-09-21T00:49:39;102055.31;;;24.58
69704;BMP280;56967;43.538;-5.646;2022-09-21T00:52:06;102058.06;;;24.43
69704;BMP280;56967;43.538;-5.646;2022-09-21T00:54:41;102056.03;;;24.68
69704;BMP280;56967;43.538;-5.646;2022-09-21T00:57:08;102060.94;;;24.56
69704;BMP280;56967;43.538;-5.646;2022-09-21T00:59:36;102055.59;;;24.51
69704;BMP280;56967;43.538;-5.646;2022-09-21T01:02:03;102054.63;;;24.76
69704;BMP280;56967;43.538;-5.646;2022-09-21T01:04:30;102052.69;;;24.43
69704;BMP280;56967;43.538;-5.646;2022-09-21T01:06:58;102053.06;;;24.26
69704;BMP280;56967;43.538;-5.646;2022-09-21T01:09:25;102050.56;;;24.40
69704;BMP280;56967;43.538;-5.646;2022-09-21T01:17:17;102048.16;;;24.38
69704;BMP280;56967;43.538;-5.646;2022-09-21T01:25:47;102040.88;;;24.39
69704;BMP280;56967;43.538;-5.646;2022-09-21T01:31:03;102050.13;;;24.17
69704;BMP280;56967;43.538;-5.646;2022-09-21T01:33:38;102051.66;;;24.72
69704;BMP280;56967;43.538;-5.646;2022-09-21T01:36:11;102041.47;;;24.30
69704;BMP280;56967;43.538;-5.646;2022-09-21T01:38:44;102042.56;;;24.24
69704;BMP280;56967;43.538;-5.646;2022-09-21T01:41:15;102039.88;;;24.24
69704;BMP280;56967;43.538;-5.646;2022-09-21T01:43:46;102036.31;;;24.39
69704;BMP280;56967;43.538;-5.646;2022-09-21T01:46:16;102039.34;;;24.22
69704;BMP280;56967;43.538;-5.646;2022-09-21T01:48:45;102034.81;;;24.62
69704;BMP280;56967;43.538;-5.646;2022-09-21T01:51:13;102038.31;;;24.62
69704;BMP280;56967;43.538;-5.646;2022-09-21T01:54:06;102036.72;;;24.61
69704;BMP280;56967;43.538;-5.646;2022-09-21T01:56:43;102028.53;;;25.05
69704;BMP280;56967;43.538;-5.646;2022-09-21T02:02:02;102023.50;;;24.26
69704;BMP280;56967;43.538;-5.646;2022-09-21T02:04:29;102021.06;;;24.68
69704;BMP280;56967;43.538;-5.646;2022-09-21T02:06:55;102023.69;;;24.73
69704;BMP280;56967;43.538;-5.646;2022-09-21T02:09:22;102028.97;;;24.50
69704;BMP280;56967;43.538;-5.646;2022-09-21T02:11:48;102026.66;;;24.72
69704;BMP280;56967;43.538;-5.646;2022-09-21T02:14:16;102027.56;;;24.62
69704;BMP280;56967;43.538;-5.646;2022-09-21T02:19:49;102029.06;;;24.73
69704;BMP280;56967;43.538;-5.646;2022-09-21T02:22:38;102023.06;;;24.48
69704;BMP280;56967;43.538;-5.646;2022-09-21T02:25:09;102019.84;;;24.51
69704;BMP280;56967;43.538;-5.646;2022-09-21T02:27:52;102022.66;;;24.69
69704;BMP280;56967;43.538;-5.646;2022-09-21T02:30:20;102018.09;;;24.65
69704;BMP280;56967;43.538;-5.646;2022-09-21T02:33:27;102017.88;;;24.61
69704;BMP280;56967;43.538;-5.646;2022-09-21T02:36:14;102013.34;;;24.57
69704;BMP280;56967;43.538;-5.646;2022-09-21T02:38:50;102013.16;;;24.82
69704;BMP280;56967;43.538;-5.646;2022-09-21T02:41:37;102011.66;;;24.66
69704;BMP280;56967;43.538;-5.646;2022-09-21T02:49:22;102002.44;;;24.38
69704;BMP280;56967;43.538;-5.646;2022-09-21T02:51:53;101997.19;;;24.90
69704;BMP280;56967;43.538;-5.646;2022-09-21T02:54:25;102003.59;;;24.66
69704;BMP280;56967;43.538;-5.646;2022-09-21T02:56:52;101994.34;;;24.77
69704;BMP280;56967;43.538;-5.646;2022-09-21T02:59:19;101993.66;;;24.95
69704;BMP280;56967;43.538;-5.646;2022-09-21T03:01:48;101993.56;;;24.76
69704;BMP280;56967;43.538;-5.646;2022-09-21T03:04:15;101991.94;;;24.75
69704;BMP280;56967;43.538;-5.646;2022-09-21T03:06:41;102000.22;;;24.84
69704;BMP280;56967;43.538;-5.646;2022-09-21T03:09:07;101998.94;;;24.76
69704;BMP280;56967;43.538;-5.646;2022-09-21T03:11:33;101997.84;;;24.77
69704;BMP280;56967;43.538;-5.646;2022-09-21T03:14:01;101995.66;;;24.46
69704;BMP280;56967;43.538;-5.646;2022-09-21T03:16:29;101991.25;;;24.60
69704;BMP280;56967;43.538;-5.646;2022-09-21T03:18:55;101995.31;;;24.86
69704;BMP280;56967;43.538;-5.646;2022-09-21T03:21:21;101991.38;;;24.78
69704;BMP280;56967;43.538;-5.646;2022-09-21T03:23:46;101992.41;;;24.82
69704;BMP280;56967;43.538;-5.646;2022-09-21T03:26:12;101988.47;;;25.03
69704;BMP280;56967;43.538;-5.646;2022-09-21T03:28:38;101976.63;;;25.28
69704;BMP280;56967;43.538;-5.646;2022-09-21T03:31:03;101985.25;;;25.01
69704;BMP280;56967;43.538;-5.646;2022-09-21T03:33:30;101976.78;;;25.37
69704;BMP280;56967;43.538;-5.646;2022-09-21T03:35:56;101975.66;;;25.43
69704;BMP280;56967;43.538;-5.646;2022-09-21T03:38:21;101969.34;;;25.29
69704;BMP280;56967;43.538;-5.646;2022-09-21T03:40:47;101969.34;;;25.52
69704;BMP280;56967;43.538;-5.646;2022-09-21T03:43:14;101969.03;;;25.35
69704;BMP280;56967;43.538;-5.646;2022-09-21T03:45:40;101970.66;;;25.55
69704;BMP280;56967;43.538;-5.646;2022-09-21T03:48:06;101973.59;;;25.58
69704;BMP280;56967;43.538;-5.646;2022-09-21T03:50:32;101966.88;;;25.32
69704;BMP280;56967;43.538;-5.646;2022-09-21T03:52:57;101972.09;;;25.47
69704;BMP280;56967;43.538;-5.646;2022-09-21T03:55:23;101971.22;;;25.52
69704;BMP280;56967;43.538;-5.646;2022-09-21T03:57:49;101967.03;;;25.22
69704;BMP280;56967;43.538;-5.646;2022-09-21T04:00:15;101965.88;;;25.23
69704;BMP280;56967;43.538;-5.646;2022-09-21T04:02:40;101967.84;;;24.94
69704;BMP280;56967;43.538;-5.646;2022-09-21T04:05:12;101968.97;;;24.88
69704;BMP280;56967;43.538;-5.646;2022-09-21T04:07:39;101958.66;;;24.66
69704;BMP280;56967;43.538;-5.646;2022-09-21T04:10:06;101975.00;;;25.03
69704;BMP280;56967;43.538;-5.646;2022-09-21T04:12:33;101961.59;;;24.98
69704;BMP280;56967;43.538;-5.646;2022-09-21T04:15:00;101961.19;;;25.34
69704;BMP280;56967;43.538;-5.646;2022-09-21T04:17:27;101959.88;;;25.07
69704;BMP280;56967;43.538;-5.646;2022-09-21T04:19:52;101961.66;;;25.17
69704;BMP280;56967;43.538;-5.646;2022-09-21T04:22:18;101964.78;;;25.29
69704;BMP280;56967;43.538;-5.646;2022-09-21T04:24:44;101966.31;;;25.35
69704;BMP280;56967;43.538;-5.646;2022-09-21T04:27:10;101957.75;;;25.52
69704;BMP280;56967;43.538;-5.646;2022-09-21T04:29:37;101965.34;;;25.68
69704;BMP280;56967;43.538;-5.646;2022-09-21T04:32:03;101963.19;;;25.47
69704;BMP280;56967;43.538;-5.646;2022-09-21T04:34:29;101967.69;;;25.56
69704;BMP280;56967;43.538;-5.646;2022-09-21T04:36:56;101972.16;;;25.66
69704;BMP280;56967;43.538;-5.646;2022-09-21T04:39:22;101968.69;;;25.60
69704;BMP280;56967;43.538;-5.646;2022-09-21T04:41:48;101972.16;;;25.66
69704;BMP280;56967;43.538;-5.646;2022-09-21T04:44:14;101974.28;;;25.64
69704;BMP280;56967;43.538;-5.646;2022-09-21T04:46:39;101969.78;;;25.59
69704;BMP280;56967;43.538;-5.646;2022-09-21T04:49:05;101970.47;;;25.46
69704;BMP280;56967;43.538;-5.646;2022-09-21T04:51:30;101968.44;;;25.38
69704;BMP280;56967;43.538;-5.646;2022-09-21T04:53:56;101967.41;;;25.58
69704;BMP280;56967;43.538;-5.646;2022-09-21T04:56:21;101967.34;;;25.63
69704;BMP280;56967;43.538;-5.646;2022-09-21T04:58:47;101966.88;;;25.56
69704;BMP280;56967;43.538;-5.646;2022-09-21T05:01:13;101974.06;;;25.60
69704;BMP280;56967;43.538;-5.646;2022-09-21T05:03:38;101965.03;;;25.51
69704;BMP280;56967;43.538;-5.646;2022-09-21T05:06:04;101960.75;;;25.27
69704;BMP280;56967;43.538;-5.646;2022-09-21T05:08:29;101958.91;;;25.46
69704;BMP280;56967;43.538;-5.646;2022-09-21T05:11:16;101955.72;;;25.44
69704;BMP280;56967;43.538;-5.646;2022-09-21T05:13:43;101962.53;;;25.36
69704;BMP280;56967;43.538;-5.646;2022-09-21T05:16:09;101959.44;;;25.48
69704;BMP280;56967;43.538;-5.646;2022-09-21T05:18:35;101962.66;;;25.26
69704;BMP280;56967;43.538;-5.646;2022-09-21T05:21:02;101964.47;;;25.07
69704;BMP280;56967;43.538;-5.646;2022-09-21T05:23:29;101959.88;;;25.07
69704;BMP280;56967;43.538;-5.646;2022-09-21T05:25:56;101970.06;;;25.10
69704;BMP280;56967;43.538;-5.646;2022-09-21T05:28:22;101970.88;;;25.11
69704;BMP280;56967;43.538;-5.646;2022-09-21T05:30:59;101975.63;;;24.95
69704;BMP280;56967;43.538;-5.646;2022-09-21T05:33:28;101968.91;;;24.93
69704;BMP280;56967;43.538;-5.646;2022-09-21T05:36:00;101970.25;;;24.90
69704;BMP280;56967;43.538;-5.646;2022-09-21T05:38:30;101973.03;;;24.85
69704;BMP280;56967;43.538;-5.646;2022-09-21T05:40:56;101981.38;;;24.84
69704;BMP280;56967;43.538;-5.646;2022-09-21T05:43:22;101974.88;;;24.90
69704;BMP280;56967;43.538;-5.646;2022-09-21T05:46:01;101981.91;;;25.09
69704;BMP280;56967;43.538;-5.646;2022-09-21T05:48:43;101974.84;;;25.18
69704;BMP280;56967;43.538;-5.646;2022-09-21T05:57:12;101972.31;;;25.27
69704;BMP280;56967;43.538;-5.646;2022-09-21T06:04:51;101971.91;;;24.86
69704;BMP280;56967;43.538;-5.646;2022-09-21T06:07:18;101972.88;;;25.00
69704;BMP280;56967;43.538;-5.646;2022-09-21T06:09:44;101964.47;;;25.31
69704;BMP280;56967;43.538;-5.646;2022-09-21T06:12:09;101973.84;;;25.33
69704;BMP280;56967;43.538;-5.646;2022-09-21T06:14:36;101971.97;;;25.10
69704;BMP280;56967;43.538;-5.646;2022-09-21T06:17:02;101978.09;;;24.87
69704;BMP280;56967;43.538;-5.646;2022-09-21T06:19:27;101972.88;;;25.24
69704;BMP280;56967;43.538;-5.646;2022-09-21T06:21:53;101983.41;;;25.26
69704;BMP280;56967;43.538;-5.646;2022-09-21T06:24:18;101980.94;;;25.53
69704;BMP280;56967;43.538;-5.646;2022-09-21T06:26:44;101982.91;;;25.66
69704;BMP280;56967;43.538;-5.646;2022-09-21T06:29:09;101982.81;;;25.76
69704;BMP280;56967;43.538;-5.646;2022-09-21T06:31:35;101983.19;;;25.64
69704;BMP280;56967;43.538;-5.646;2022-09-21T06:34:00;101985.13;;;25.82
69704;BMP280;56967;43.538;-5.646;2022-09-21T06:36:26;102020.56;;;27.37
69704;BMP280;56967;43.538;-5.646;2022-09-21T06:38:52;102031.59;;;29.65
69704;BMP280;56967;43.538;-5.646;2022-09-21T06:41:17;102037.06;;;31.29
69704;BMP280;56967;43.538;-5.646;2022-09-21T06:43:42;102043.81;;;32.74
69704;BMP280;56967;43.538;-5.646;2022-09-21T06:46:08;102049.84;;;33.83
69704;BMP280;56967;43.538;-5.646;2022-09-21T06:48:34;102057.81;;;35.35
69704;BMP280;56967;43.538;-5.646;2022-09-21T06:51:01;102056.28;;;36.95
69704;BMP280;56967;43.538;-5.646;2022-09-21T06:53:28;102070.44;;;38.11
69704;BMP280;56967;43.538;-5.646;2022-09-21T06:56:02;102073.84;;;39.23
69704;BMP280;56967;43.538;-5.646;2022-09-21T06:58:29;102081.78;;;40.12
69704;BMP280;56967;43.538;-5.646;2022-09-21T07:00:55;102083.81;;;41.12
69704;BMP280;56967;43.538;-5.646;2022-09-21T07:03:21;102096.75;;;42.17
69704;BMP280;56967;43.538;-5.646;2022-09-21T07:05:46;102099.31;;;41.97
69704;BMP280;56967;43.538;-5.646;2022-09-21T07:08:12;102092.50;;;43.75
69704;BMP280;56967;43.538;-5.646;2022-09-21T07:10:38;102093.75;;;44.13
69704;BMP280;56967;43.538;-5.646;2022-09-21T07:13:04;102104.41;;;45.37
69704;BMP280;56967;43.538;-5.646;2022-09-21T07:15:31;102110.47;;;46.59
69704;BMP280;56967;43.538;-5.646;2022-09-21T07:17:57;102110.59;;;47.27
69704;BMP280;56967;43.538;-5.646;2022-09-21T07:20:22;102109.72;;;47.94
69704;BMP280;56967;43.538;-5.646;2022-09-21T07:22:48;102111.44;;;48.53
69704;BMP280;56967;43.538;-5.646;2022-09-21T07:25:14;102121.00;;;47.14
69704;BMP280;56967;43.538;-5.646;2022-09-21T07:27:40;102112.66;;;43.79
69704;BMP280;56967;43.538;-5.646;2022-09-21T07:30:07;102118.66;;;45.84
69704;BMP280;56967;43.538;-5.646;2022-09-21T07:32:33;102123.28;;;42.78
69704;BMP280;56967;43.538;-5.646;2022-09-21T07:34:58;102121.50;;;44.88
69704;BMP280;56967;43.538;-5.646;2022-09-21T07:37:26;102130.47;;;45.11
69704;BMP280;56967;43.538;-5.646;2022-09-21T07:39:52;102130.88;;;46.93
69704;BMP280;56967;43.538;-5.646;2022-09-21T07:42:18;102136.56;;;49.01
69704;BMP280;56967;43.538;-5.646;2022-09-21T07:44:45;102133.06;;;50.38
69704;BMP280;56967;43.538;-5.646;2022-09-21T07:47:11;102142.63;;;51.02
69704;BMP280;56967;43.538;-5.646;2022-09-21T07:49:38;102135.88;;;49.96
69704;BMP280;56967;43.538;-5.646;2022-09-21T07:52:04;102130.22;;;48.52
69704;BMP280;56967;43.538;-5.646;2022-09-21T07:54:30;102139.13;;;50.69
69704;BMP280;56967;43.538;-5.646;2022-09-21T07:56:56;102151.09;;;52.03
69704;BMP280;56967;43.538;-5.646;2022-09-21T07:59:40;102153.00;;;52.86
69704;BMP280;56967;43.538;-5.646;2022-09-21T08:02:06;102159.47;;;54.69
69704;BMP280;56967;43.538;-5.646;2022-09-21T08:04:31;102155.81;;;51.25
69704;BMP280;56967;43.538;-5.646;2022-09-21T08:06:57;102151.97;;;50.99
69704;BMP280;56967;43.538;-5.646;2022-09-21T08:09:22;102150.63;;;53.56
69704;BMP280;56967;43.538;-5.646;2022-09-21T08:11:48;102148.63;;;53.05
69704;BMP280;56967;43.538;-5.646;2022-09-21T08:14:16;102154.25;;;54.40
69704;BMP280;56967;43.538;-5.646;2022-09-21T08:16:45;102146.84;;;54.48
69704;BMP280;56967;43.538;-5.646;2022-09-21T08:19:12;102137.34;;;53.31
69704;BMP280;56967;43.538;-5.646;2022-09-21T08:21:38;102133.56;;;48.78
69704;BMP280;56967;43.538;-5.646;2022-09-21T08:24:04;102138.09;;;49.83
69704;BMP280;56967;43.538;-5.646;2022-09-21T08:26:30;102128.34;;;48.98
69704;BMP280;56967;43.538;-5.646;2022-09-21T08:28:55;102129.72;;;49.74
69704;BMP280;56967;43.538;-5.646;2022-09-21T08:31:23;102135.81;;;50.70
69704;BMP280;56967;43.538;-5.646;2022-09-21T08:33:49;102132.50;;;49.74
69704;BMP280;56967;43.538;-5.646;2022-09-21T08:36:16;102128.69;;;49.95
69704;BMP280;56967;43.538;-5.646;2022-09-21T08:38:42;102134.25;;;49.54
69704;BMP280;56967;43.538;-5.646;2022-09-21T08:43:51;102121.78;;;48.92
69704;BMP280;56967;43.538;-5.646;2022-09-21T08:46:21;102117.97;;;48.19
69704;BMP280;56967;43.538;-5.646;2022-09-21T08:48:57;102044.84;;;45.79
69704;BMP280;56967;43.538;-5.646;2022-09-21T08:51:28;102004.06;;;40.52
69704;BMP280;56967;43.538;-5.646;2022-09-21T08:56:51;102011.44;;;35.61
69704;BMP280;56967;43.538;-5.646;2022-09-21T08:59:18;102014.28;;;34.92
69704;BMP280;56967;43.538;-5.646;2022-09-21T09:01:54;102003.81;;;33.26
69704;BMP280;56967;43.538;-5.646;2022-09-21T09:07:20;102008.31;;;32.58
69704;BMP280;56967;43.538;-5.646;2022-09-21T09:10:10;102008.91;;;32.19
69704;BMP280;56967;43.538;-5.646;2022-09-21T09:21:28;102005.47;;;30.58
69704;BMP280;56967;43.538;-5.646;2022-09-21T09:24:54;101998.06;;;29.69
69704;BMP280;56967;43.538;-5.646;2022-09-21T09:27:03;102007.03;;;30.67
69704;BMP280;56967;43.538;-5.646;2022-09-21T09:29:35;102005.59;;;29.98
69704;BMP280;56967;43.538;-5.646;2022-09-21T09:32:05;102013.03;;;30.35
69704;BMP280;56967;43.538;-5.646;2022-09-21T09:34:40;101998.75;;;30.93
69704;BMP280;56967;43.538;-5.646;2022-09-21T09:37:15;101999.84;;;30.16
69704;BMP280;56967;43.538;-5.646;2022-09-21T09:39:42;101995.16;;;31.09
69704;BMP280;56967;43.538;-5.646;2022-09-21T09:50:34;101983.81;;;30.23
69704;BMP280;56967;43.538;-5.646;2022-09-21T09:53:05;101995.97;;;30.26
69704;BMP280;56967;43.538;-5.646;2022-09-21T09:55:38;101993.69;;;29.17
69704;BMP280;56967;43.538;-5.646;2022-09-21T09:58:11;101985.81;;;29.55
69704;BMP280;56967;43.538;-5.646;2022-09-21T10:00:40;101981.16;;;28.82
69704;BMP280;56967;43.538;-5.646;2022-09-21T10:03:15;101985.31;;;29.61
69704;BMP280;56967;43.538;-5.646;2022-09-21T10:05:41;101983.97;;;29.07
69704;BMP280;56967;43.538;-5.646;2022-09-21T10:08:37;101986.72;;;29.25
69704;BMP280;56967;43.538;-5.646;2022-09-21T10:11:12;101985.56;;;29.08
69704;BMP280;56967;43.538;-5.646;2022-09-21T10:13:48;101984.13;;;29.19
69704;BMP280;56967;43.538;-5.646;2022-09-21T10:16:14;101981.16;;;29.30
69704;BMP280;56967;43.538;-5.646;2022-09-21T10:18:52;101977.47;;;29.34
69704;BMP280;56967;43.538;-5.646;2022-09-21T10:21:32;101970.66;;;29.88
69704;BMP280;56967;43.538;-5.646;2022-09-21T10:24:02;101979.88;;;29.87
69704;BMP280;56967;43.538;-5.646;2022-09-21T10:26:36;101978.81;;;29.45
69704;BMP280;56967;43.538;-5.646;2022-09-21T10:31:56;101978.44;;;29.30
69704;BMP280;56967;43.538;-5.646;2022-09-21T10:34:23;101982.44;;;28.84
69704;BMP280;56967;43.538;-5.646;2022-09-21T10:36:52;101966.13;;;29.15
69704;BMP280;56967;43.538;-5.646;2022-09-21T10:39:23;101971.75;;;28.79
69704;BMP280;56967;43.538;-5.646;2022-09-21T10:41:56;101997.13;;;28.31
69704;BMP280;56967;43.538;-5.646;2022-09-21T10:44:41;101985.50;;;28.30
69704;BMP280;56967;43.538;-5.646;2022-09-21T10:47:34;101982.88;;;27.81
69704;BMP280;56967;43.538;-5.646;2022-09-21T10:50:05;101970.25;;;28.12
69704;BMP280;56967;43.538;-5.646;2022-09-21T10:52:42;101980.28;;;28.11
69704;BMP280;56967;43.538;-5.646;2022-09-21T10:55:16;101963.47;;;28.01
69704;BMP280;56967;43.538;-5.646;2022-09-21T10:57:43;101986.19;;;28.13
69704;BMP280;56967;43.538;-5.646;2022-09-21T11:02:51;101993.06;;;28.50
69704;BMP280;56967;43.538;-5.646;2022-09-21T11:05:28;101956.56;;;28.70
69704;BMP280;56967;43.538;-5.646;2022-09-21T11:11:05;101992.72;;;28.43
69704;BMP280;56967;43.538;-5.646;2022-09-21T11:13:45;101985.25;;;28.71
69704;BMP280;56967;43.538;-5.646;2022-09-21T11:16:39;102000.34;;;29.02
69704;BMP280;56967;43.538;-5.646;2022-09-21T11:22:38;101963.28;;;29.37
69704;BMP280;56967;43.538;-5.646;2022-09-21T11:27:24;101965.31;;;29.14
69704;BMP280;56967;43.538;-5.646;2022-09-21T11:30:13;101945.88;;;29.12
69704;BMP280;56967;43.538;-5.646;2022-09-21T11:35:38;101977.53;;;28.64
69704;BMP280;56967;43.538;-5.646;2022-09-21T11:38:31;101955.28;;;29.23
69704;BMP280;56967;43.538;-5.646;2022-09-21T11:46:16;101930.84;;;28.89
69704;BMP280;56967;43.538;-5.646;2022-09-21T12:08:53;101916.91;;;29.39
69704;BMP280;56967;43.538;-5.646;2022-09-21T12:11:27;101929.59;;;28.26
69704;BMP280;56967;43.538;-5.646;2022-09-21T12:14:08;101932.25;;;27.95
69704;BMP280;56967;43.538;-5.646;2022-09-21T12:22:26;101931.44;;;28.17
69704;BMP280;56967;43.538;-5.646;2022-09-21T12:28:28;101956.06;;;28.37
69704;BMP280;56967;43.538;-5.646;2022-09-21T12:30:38;101971.84;;;28.35
69704;BMP280;56967;43.538;-5.646;2022-09-21T12:36:12;101943.53;;;28.41
69704;BMP280;56967;43.538;-5.646;2022-09-21T12:39:02;101945.88;;;28.34
69704;BMP280;56967;43.538;-5.646;2022-09-21T12:44:25;101916.72;;;28.31
69704;BMP280;56967;43.538;-5.646;2022-09-21T12:46:55;101935.63;;;28.00
69704;BMP280;56967;43.538;-5.646;2022-09-21T12:49:37;101936.06;;;27.72
69704;BMP280;56967;43.538;-5.646;2022-09-21T12:52:05;101930.72;;;27.80
69704;BMP280;56967;43.538;-5.646;2022-09-21T13:00:20;101930.94;;;27.70
69704;BMP280;56967;43.538;-5.646;2022-09-21T13:02:52;101909.91;;;28.03
69704;BMP280;56967;43.538;-5.646;2022-09-21T13:08:30;101916.31;;;28.77
69704;BMP280;56967;43.538;-5.646;2022-09-21T13:10:44;101905.19;;;28.87
69704;BMP280;56967;43.538;-5.646;2022-09-21T13:15:53;101882.13;;;29.15
69704;BMP280;56967;43.538;-5.646;2022-09-21T13:18:25;101898.38;;;29.15
69704;BMP280;56967;43.538;-5.646;2022-09-21T13:20:53;101893.81;;;28.68
69704;BMP280;56967;43.538;-5.646;2022-09-21T13:23:26;101862.72;;;29.13
69704;BMP280;56967;43.538;-5.646;2022-09-21T13:26:00;101874.63;;;28.95
69704;BMP280;56967;43.538;-5.646;2022-09-21T13:34:43;101901.66;;;27.86
69704;BMP280;56967;43.538;-5.646;2022-09-21T13:39:36;101874.94;;;27.84
69704;BMP280;56967;43.538;-5.646;2022-09-21T13:44:56;101859.00;;;27.83
69704;BMP280;56967;43.538;-5.646;2022-09-21T13:47:33;101862.69;;;28.09
69704;BMP280;56967;43.538;-5.646;2022-09-21T13:50:02;101878.94;;;27.95
69704;BMP280;56967;43.538;-5.646;2022-09-21T13:52:45;101860.91;;;28.44
69704;BMP280;56967;43.538;-5.646;2022-09-21T13:55:38;101855.81;;;27.81
69704;BMP280;56967;43.538;-5.646;2022-09-21T13:58:24;101858.72;;;27.84
69704;BMP280;56967;43.538;-5.646;2022-09-21T14:03:43;101893.16;;;27.79
69704;BMP280;56967;43.538;-5.646;2022-09-21T14:06:20;101884.97;;;27.92
69704;BMP280;56967;43.538;-5.646;2022-09-21T14:08:53;101867.66;;;27.71
69704;BMP280;56967;43.538;-5.646;2022-09-21T14:11:35;101863.94;;;27.81
69704;BMP280;56967;43.538;-5.646;2022-09-21T14:24:49;101844.66;;;27.82
69704;BMP280;56967;43.538;-5.646;2022-09-21T14:27:43;101866.38;;;27.69
69704;BMP280;56967;43.538;-5.646;2022-09-21T14:30:24;101890.53;;;27.52
69704;BMP280;56967;43.538;-5.646;2022-09-21T14:35:26;101856.38;;;28.70
69704;BMP280;56967;43.538;-5.646;2022-09-21T14:38:04;101871.59;;;27.87
69704;BMP280;56967;43.538;-5.646;2022-09-21T14:40:36;101863.78;;;27.86
69704;BMP280;56967;43.538;-5.646;2022-09-21T14:43:08;101868.59;;;28.20
69704;BMP280;56967;43.538;-5.646;2022-09-21T14:48:49;101854.69;;;27.60
69704;BMP280;56967;43.538;-5.646;2022-09-21T14:54:47;101866.56;;;27.37
69704;BMP280;56967;43.538;-5.646;2022-09-21T15:00:15;101867.13;;;27.61
69704;BMP280;56967;43.538;-5.646;2022-09-21T15:02:47;101849.47;;;27.28
69704;BMP280;56967;43.538;-5.646;2022-09-21T15:16:23;101868.13;;;27.73
69704;BMP280;56967;43.538;-5.646;2022-09-21T15:19:09;101869.47;;;27.76
69704;BMP280;56967;43.538;-5.646;2022-09-21T15:21:39;101872.00;;;27.94
69704;BMP280;56967;43.538;-5.646;2022-09-21T15:24:20;101884.84;;;27.53
69704;BMP280;56967;43.538;-5.646;2022-09-21T15:26:48;101851.81;;;27.78
69704;BMP280;56967;43.538;-5.646;2022-09-21T15:29:20;101848.25;;;27.91
69704;BMP280;56967;43.538;-5.646;2022-09-21T15:31:49;101855.66;;;27.42
69704;BMP280;56967;43.538;-5.646;2022-09-21T15:34:14;101846.84;;;27.72
69704;BMP280;56967;43.538;-5.646;2022-09-21T15:36:41;101875.19;;;27.39
69704;BMP280;56967;43.538;-5.646;2022-09-21T15:39:27;101854.06;;;27.27
69704;BMP280;56967;43.538;-5.646;2022-09-21T15:44:35;101858.00;;;27.35
69704;BMP280;56967;43.538;-5.646;2022-09-21T15:47:03;101848.81;;;27.58
69704;BMP280;56967;43.538;-5.646;2022-09-21T15:49:33;101880.72;;;27.56
69704;BMP280;56967;43.538;-5.646;2022-09-21T15:52:12;101875.72;;;27.63
69704;BMP280;56967;43.538;-5.646;2022-09-21T15:54:45;101861.41;;;27.62
69704;BMP280;56967;43.538;-5.646;2022-09-21T15:57:32;101846.22;;;27.97
69704;BMP280;56967;43.538;-5.646;2022-09-21T16:00:26;101839.25;;;27.82
69704;BMP280;56967;43.538;-5.646;2022-09-21T16:02:57;101839.72;;;27.54
69704;BMP280;56967;43.538;-5.646;2022-09-21T16:05:23;101851.75;;;27.70
69704;BMP280;56967;43.538;-5.646;2022-09-21T16:08:13;101848.97;;;27.61
69704;BMP280;56967;43.538;-5.646;2022-09-21T16:10:41;101874.00;;;27.89
69704;BMP280;56967;43.538;-5.646;2022-09-21T16:13:23;101844.53;;;28.09
69704;BMP280;56967;43.538;-5.646;2022-09-21T16:16:10;101836.16;;;27.45
69704;BMP280;56967;43.538;-5.646;2022-09-21T16:18:50;101851.13;;;27.95
69704;BMP280;56967;43.538;-5.646;2022-09-21T16:21:34;101844.13;;;27.50
69704;BMP280;56967;43.538;-5.646;2022-09-21T16:24:19;101842.81;;;27.25
69704;BMP280;56967;43.538;-5.646;2022-09-21T16:26:58;101878.59;;;27.44
69704;BMP280;56967;43.538;-5.646;2022-09-21T16:29:26;101830.53;;;27.05
69704;BMP280;56967;43.538;-5.646;2022-09-21T16:34:41;101852.28;;;27.36
69704;BMP280;56967;43.538;-5.646;2022-09-21T16:37:20;101851.66;;;27.39
69704;BMP280;56967;43.538;-5.646;2022-09-21T16:39:57;101860.22;;;27.99
69704;BMP280;56967;43.538;-5.646;2022-09-21T16:42:25;101836.16;;;27.45
69704;BMP280;56967;43.538;-5.646;2022-09-21T16:44:53;101863.06;;;27.72
69704;BMP280;56967;43.538;-5.646;2022-09-21T16:47:26;101848.75;;;27.49
69704;BMP280;56967;43.538;-5.646;2022-09-21T16:49:58;101861.78;;;27.34
69704;BMP280;56967;43.538;-5.646;2022-09-21T16:52:28;101854.50;;;27.21
69704;BMP280;56967;43.538;-5.646;2022-09-21T16:54:55;101870.34;;;27.49
69704;BMP280;56967;43.538;-5.646;2022-09-21T16:57:24;101858.72;;;27.84
69704;BMP280;56967;43.538;-5.646;2022-09-21T16:59:51;101865.03;;;28.41
69704;BMP280;56967;43.538;-5.646;2022-09-21T17:02:17;101863.91;;;28.34
69704;BMP280;56967;43.538;-5.646;2022-09-21T17:04:43;101867.50;;;28.21
69704;BMP280;56967;43.538;-5.646;2022-09-21T17:07:13;101870.03;;;28.56
69704;BMP280;56967;43.538;-5.646;2022-09-21T17:09:40;101850.50;;;28.68